sensor_id;sensor_type;location;lat;lon;timestamp;temperature;humidity
20524;DHT22;10420;48.542;12.270;2022-12-07T00:02:46;3.20;99.90
20524;DHT22;10420;48.542;12.270;2022-12-07T00:07:46;3.20;99.90
20524;DHT22;10420;48.542;12.270;2022-12-07T00:12:47;3.20;99.90
20524;DHT22;10420;48.542;12.270;2022-12-07T00:17:48;3.20;99.90
20524;DHT22;10420;48.542;12.270;2022-12-07T00:22:48;3.20;99.90
20524;DHT22;10420;48.542;12.270;2022-12-07T00:27:49;3.10;99.90
20524;DHT22;10420;48.542;12.270;2022-12-07T00:32:50;3.10;99.90
20524;DHT22;10420;48.542;12.270;2022-12-07T00:37:50;3.00;99.90
20524;DHT22;10420;48.542;12.270;2022-12-07T00:42:51;3.00;99.90
20524;DHT22;10420;48.542;12.270;2022-12-07T00:47:51;3.00;99.90
20524;DHT22;10420;48.542;12.270;2022-12-07T00:52:52;3.00;99.90
20524;DHT22;10420;48.542;12.270;2022-12-07T00:57:53;2.90;99.90
20524;DHT22;10420;48.542;12.270;2022-12-07T01:02:53;2.90;99.90
20524;DHT22;10420;48.542;12.270;2022-12-07T01:07:54;2.90;99.90
20524;DHT22;10420;48.542;12.270;2022-12-07T01:12:54;2.90;99.90
20524;DHT22;10420;48.542;12.270;2022-12-07T01:17:55;2.80;99.90
20524;DHT22;10420;48.542;12.270;2022-12-07T01:22:56;2.80;99.90
20524;DHT22;10420;48.542;12.270;2022-12-07T01:27:56;2.80;99.90
20524;DHT22;10420;48.542;12.270;2022-12-07T01:32:57;2.70;99.90
20524;DHT22;10420;48.542;12.270;2022-12-07T01:37:58;2.80;99.90
20524;DHT22;10420;48.542;12.270;2022-12-07T01:42:58;2.70;99.90
20524;DHT22;10420;48.542;12.270;2022-12-07T01:47:59;2.60;99.90
20524;DHT22;10420;48.542;12.270;2022-12-07T01:53:03;2.80;99.90
20524;DHT22;10420;48.542;12.270;2022-12-07T01:58:06;2.80;99.90
20524;DHT22;10420;48.542;12.270;2022-12-07T02:03:59;2.80;99.90
20524;DHT22;10420;48.542;12.270;2022-12-07T02:08:35;2.80;99.90
20524;DHT22;10420;48.542;12.270;2022-12-07T02:13:38;2.60;99.90
20524;DHT22;10420;48.542;12.270;2022-12-07T02:19:02;2.60;99.90
20524;DHT22;10420;48.542;12.270;2022-12-07T02:30:14;2.60;99.90
20524;DHT22;10420;48.542;12.270;2022-12-07T02:35:22;2.50;99.90
20524;DHT22;10420;48.542;12.270;2022-12-07T02:45:38;2.60;99.90
20524;DHT22;10420;48.542;12.270;2022-12-07T02:50:47;2.70;99.90
20524;DHT22;10420;48.542;12.270;2022-12-07T02:55:48;2.50;99.90
20524;DHT22;10420;48.542;12.270;2022-12-07T03:01:17;2.50;99.90
20524;DHT22;10420;48.542;12.270;2022-12-07T03:06:31;2.40;99.90
20524;DHT22;10420;48.542;12.270;2022-12-07T03:11:44;2.40;99.90
20524;DHT22;10420;48.542;12.270;2022-12-07T03:22:01;2.40;99.90
20524;DHT22;10420;48.542;12.270;2022-12-07T03:27:08;2.40;99.90
20524;DHT22;10420;48.542;12.270;2022-12-07T03:32:25;2.40;99.90
20524;DHT22;10420;48.542;12.270;2022-12-07T03:37:35;2.50;99.90
20524;DHT22;10420;48.542;12.270;2022-12-07T03:42:37;2.50;99.90
20524;DHT22;10420;48.542;12.270;2022-12-07T03:47:47;2.40;99.90
20524;DHT22;10420;48.542;12.270;2022-12-07T03:52:58;2.40;99.90
20524;DHT22;10420;48.542;12.270;2022-12-07T03:58:06;2.40;99.90
20524;DHT22;10420;48.542;12.270;2022-12-07T04:03:08;2.40;99.90
20524;DHT22;10420;48.542;12.270;2022-12-07T04:08:09;2.40;99.90
20524;DHT22;10420;48.542;12.270;2022-12-07T04:13:10;2.40;99.90
20524;DHT22;10420;48.542;12.270;2022-12-07T04:18:11;2.50;99.90
20524;DHT22;10420;48.542;12.270;2022-12-07T04:23:11;2.50;99.90
20524;DHT22;10420;48.542;12.270;2022-12-07T04:28:12;2.50;99.90
20524;DHT22;10420;48.542;12.270;2022-12-07T04:33:12;2.40;99.90
20524;DHT22;10420;48.542;12.270;2022-12-07T04:38:13;2.50;99.90
20524;DHT22;10420;48.542;12.270;2022-12-07T04:43:14;2.50;99.90
20524;DHT22;10420;48.542;12.270;2022-12-07T04:48:14;2.50;99.90
20524;DHT22;10420;48.542;12.270;2022-12-07T04:53:15;2.40;99.90
20524;DHT22;10420;48.542;12.270;2022-12-07T04:58:16;2.40;99.90
20524;DHT22;10420;48.542;12.270;2022-12-07T05:03:17;2.40;99.90
20524;DHT22;10420;48.542;12.270;2022-12-07T05:08:17;2.40;99.90
20524;DHT22;10420;48.542;12.270;2022-12-07T05:13:18;2.50;99.90
20524;DHT22;10420;48.542;12.270;2022-12-07T05:18:19;2.60;99.90
20524;DHT22;10420;48.542;12.270;2022-12-07T05:23:19;2.50;99.90
20524;DHT22;10420;48.542;12.270;2022-12-07T05:28:20;2.60;99.90
20524;DHT22;10420;48.542;12.270;2022-12-07T05:33:21;2.50;99.90
20524;DHT22;10420;48.542;12.270;2022-12-07T05:38:21;2.50;99.90
20524;DHT22;10420;48.542;12.270;2022-12-07T05:43:22;2.50;99.90
20524;DHT22;10420;48.542;12.270;2022-12-07T05:48:23;2.40;99.90
20524;DHT22;10420;48.542;12.270;2022-12-07T05:53:23;2.30;99.90
20524;DHT22;10420;48.542;12.270;2022-12-07T05:58:24;2.10;99.90
20524;DHT22;10420;48.542;12.270;2022-12-07T06:03:43;2.00;99.90
20524;DHT22;10420;48.542;12.270;2022-12-07T06:08:45;2.00;99.90
20524;DHT22;10420;48.542;12.270;2022-12-07T06:13:45;1.80;99.90
20524;DHT22;10420;48.542;12.270;2022-12-07T06:18:46;1.80;99.90
20524;DHT22;10420;48.542;12.270;2022-12-07T06:23:47;1.50;99.90
20524;DHT22;10420;48.542;12.270;2022-12-07T06:28:48;1.40;99.90
20524;DHT22;10420;48.542;12.270;2022-12-07T06:33:48;1.30;99.90
20524;DHT22;10420;48.542;12.270;2022-12-07T06:38:49;1.10;99.90
20524;DHT22;10420;48.542;12.270;2022-12-07T06:43:50;1.00;99.90
20524;DHT22;10420;48.542;12.270;2022-12-07T06:48:51;0.90;99.90
20524;DHT22;10420;48.542;12.270;2022-12-07T06:53:51;0.90;99.90
20524;DHT22;10420;48.542;12.270;2022-12-07T06:58:52;0.90;99.90
20524;DHT22;10420;48.542;12.270;2022-12-07T07:03:53;0.80;99.90
20524;DHT22;10420;48.542;12.270;2022-12-07T07:08:53;0.90;99.90
20524;DHT22;10420;48.542;12.270;2022-12-07T07:13:54;0.80;99.90
20524;DHT22;10420;48.542;12.270;2022-12-07T07:18:57;0.70;99.90
20524;DHT22;10420;48.542;12.270;2022-12-07T07:23:58;0.60;99.90
20524;DHT22;10420;48.542;12.270;2022-12-07T07:28:58;0.70;99.90
20524;DHT22;10420;48.542;12.270;2022-12-07T07:33:59;0.80;99.90
20524;DHT22;10420;48.542;12.270;2022-12-07T07:39:00;1.00;99.90
20524;DHT22;10420;48.542;12.270;2022-12-07T07:44:00;0.90;99.90
20524;DHT22;10420;48.542;12.270;2022-12-07T07:49:01;1.10;99.90
20524;DHT22;10420;48.542;12.270;2022-12-07T07:54:03;1.40;99.90
20524;DHT22;10420;48.542;12.270;2022-12-07T07:59:03;1.90;99.90
20524;DHT22;10420;48.542;12.270;2022-12-07T08:04:04;2.50;99.90
20524;DHT22;10420;48.542;12.270;2022-12-07T08:09:05;2.60;99.90
20524;DHT22;10420;48.542;12.270;2022-12-07T08:14:06;2.70;99.90
20524;DHT22;10420;48.542;12.270;2022-12-07T08:19:07;2.90;99.90
20524;DHT22;10420;48.542;12.270;2022-12-07T08:24:08;3.10;99.90
20524;DHT22;10420;48.542;12.270;2022-12-07T08:29:08;3.30;99.90
20524;DHT22;10420;48.542;12.270;2022-12-07T08:34:13;3.30;99.90
20524;DHT22;10420;48.542;12.270;2022-12-07T08:39:14;3.40;99.90
20524;DHT22;10420;48.542;12.270;2022-12-07T08:44:15;3.20;99.90
20524;DHT22;10420;48.542;12.270;2022-12-07T08:49:19;3.10;99.90
20524;DHT22;10420;48.542;12.270;2022-12-07T08:54:22;3.10;99.90
20524;DHT22;10420;48.542;12.270;2022-12-07T08:59:24;3.40;99.90
20524;DHT22;10420;48.542;12.270;2022-12-07T09:04:25;3.60;99.90
20524;DHT22;10420;48.542;12.270;2022-12-07T09:09:25;3.90;99.90
20524;DHT22;10420;48.542;12.270;2022-12-07T09:14:26;3.90;99.90
20524;DHT22;10420;48.542;12.270;2022-12-07T09:19:27;3.70;99.90
20524;DHT22;10420;48.542;12.270;2022-12-07T09:24:27;3.70;99.90
20524;DHT22;10420;48.542;12.270;2022-12-07T09:29:28;3.60;99.90
20524;DHT22;10420;48.542;12.270;2022-12-07T09:34:31;5.70;99.90
20524;DHT22;10420;48.542;12.270;2022-12-07T09:39:32;6.40;99.90
20524;DHT22;10420;48.542;12.270;2022-12-07T09:44:34;7.70;99.90
20524;DHT22;10420;48.542;12.270;2022-12-07T09:49:35;12.90;99.90
20524;DHT22;10420;48.542;12.270;2022-12-07T09:54:37;16.10;99.90
20524;DHT22;10420;48.542;12.270;2022-12-07T09:59:40;13.70;99.90
20524;DHT22;10420;48.542;12.270;2022-12-07T10:04:41;7.40;99.90
20524;DHT22;10420;48.542;12.270;2022-12-07T10:09:43;5.20;99.90
20524;DHT22;10420;48.542;12.270;2022-12-07T10:15:01;4.80;99.90
20524;DHT22;10420;48.542;12.270;2022-12-07T10:25:22;5.10;99.90
20524;DHT22;10420;48.542;12.270;2022-12-07T10:30:23;4.80;99.90
20524;DHT22;10420;48.542;12.270;2022-12-07T10:35:28;4.70;99.90
20524;DHT22;10420;48.542;12.270;2022-12-07T10:40:34;4.80;99.90
20524;DHT22;10420;48.542;12.270;2022-12-07T11:01:21;4.90;99.90
20524;DHT22;10420;48.542;12.270;2022-12-07T11:06:34;4.80;99.90
20524;DHT22;10420;48.542;12.270;2022-12-07T11:27:56;5.50;99.90
20524;DHT22;10420;48.542;12.270;2022-12-07T11:33:09;5.70;99.90
20524;DHT22;10420;48.542;12.270;2022-12-07T11:38:16;5.20;99.90
20524;DHT22;10420;48.542;12.270;2022-12-07T11:48:22;5.20;99.90
20524;DHT22;10420;48.542;12.270;2022-12-07T11:53:38;5.10;99.90
20524;DHT22;10420;48.542;12.270;2022-12-07T11:59:08;4.90;99.90
20524;DHT22;10420;48.542;12.270;2022-12-07T12:09:31;4.70;99.90
20524;DHT22;10420;48.542;12.270;2022-12-07T12:20:15;4.80;99.90
20524;DHT22;10420;48.542;12.270;2022-12-07T12:25:42;4.70;99.90
20524;DHT22;10420;48.542;12.270;2022-12-07T12:30:45;4.70;99.90
20524;DHT22;10420;48.542;12.270;2022-12-07T12:35:45;4.60;99.90
20524;DHT22;10420;48.542;12.270;2022-12-07T12:40:46;4.60;99.90
20524;DHT22;10420;48.542;12.270;2022-12-07T12:45:47;4.60;99.90
20524;DHT22;10420;48.542;12.270;2022-12-07T12:50:47;4.50;99.90
20524;DHT22;10420;48.542;12.270;2022-12-07T12:56:29;4.50;99.90
20524;DHT22;10420;48.542;12.270;2022-12-07T13:01:40;4.30;99.90
20524;DHT22;10420;48.542;12.270;2022-12-07T13:06:42;4.30;99.90
20524;DHT22;10420;48.542;12.270;2022-12-07T13:11:44;4.30;99.90
20524;DHT22;10420;48.542;12.270;2022-12-07T13:16:46;4.40;99.90
20524;DHT22;10420;48.542;12.270;2022-12-07T13:21:46;4.30;99.90
20524;DHT22;10420;48.542;12.270;2022-12-07T13:26:48;4.20;99.90
20524;DHT22;10420;48.542;12.270;2022-12-07T13:31:52;4.10;99.90
20524;DHT22;10420;48.542;12.270;2022-12-07T13:36:54;4.00;99.90
20524;DHT22;10420;48.542;12.270;2022-12-07T13:41:59;4.00;99.90
20524;DHT22;10420;48.542;12.270;2022-12-07T13:47:17;4.00;99.90
20524;DHT22;10420;48.542;12.270;2022-12-07T13:52:20;4.00;99.90
20524;DHT22;10420;48.542;12.270;2022-12-07T13:57:22;3.90;99.90
20524;DHT22;10420;48.542;12.270;2022-12-07T14:02:30;3.90;99.90
20524;DHT22;10420;48.542;12.270;2022-12-07T14:07:33;3.80;99.90
20524;DHT22;10420;48.542;12.270;2022-12-07T14:12:36;3.90;99.90
20524;DHT22;10420;48.542;12.270;2022-12-07T14:17:53;3.60;99.90
20524;DHT22;10420;48.542;12.270;2022-12-07T14:22:55;3.50;99.90
20524;DHT22;10420;48.542;12.270;2022-12-07T14:27:58;3.60;99.90
20524;DHT22;10420;48.542;12.270;2022-12-07T14:33:01;3.60;99.90
20524;DHT22;10420;48.542;12.270;2022-12-07T14:38:02;3.60;99.90
20524;DHT22;10420;48.542;12.270;2022-12-07T14:43:06;3.50;99.90
20524;DHT22;10420;48.542;12.270;2022-12-07T14:48:13;3.50;99.90
20524;DHT22;10420;48.542;12.270;2022-12-07T14:53:16;3.30;99.90
20524;DHT22;10420;48.542;12.270;2022-12-07T14:58:18;3.30;99.90
20524;DHT22;10420;48.542;12.270;2022-12-07T15:03:18;3.20;99.90
20524;DHT22;10420;48.542;12.270;2022-12-07T15:08:19;3.10;99.90
20524;DHT22;10420;48.542;12.270;2022-12-07T15:13:20;3.10;99.90
20524;DHT22;10420;48.542;12.270;2022-12-07T15:18:59;3.10;99.90
20524;DHT22;10420;48.542;12.270;2022-12-07T15:23:59;3.00;99.90
20524;DHT22;10420;48.542;12.270;2022-12-07T15:29:00;3.00;99.90
20524;DHT22;10420;48.542;12.270;2022-12-07T15:34:01;3.00;99.90
20524;DHT22;10420;48.542;12.270;2022-12-07T15:39:02;3.00;99.90
20524;DHT22;10420;48.542;12.270;2022-12-07T15:44:03;2.90;99.90
20524;DHT22;10420;48.542;12.270;2022-12-07T15:49:22;2.80;99.90
20524;DHT22;10420;48.542;12.270;2022-12-07T15:54:26;2.80;99.90
20524;DHT22;10420;48.542;12.270;2022-12-07T15:59:27;2.70;99.90
20524;DHT22;10420;48.542;12.270;2022-12-07T16:04:29;2.70;99.90
20524;DHT22;10420;48.542;12.270;2022-12-07T16:09:30;2.70;99.90
20524;DHT22;10420;48.542;12.270;2022-12-07T16:14:30;2.70;99.90
20524;DHT22;10420;48.542;12.270;2022-12-07T16:19:34;2.70;99.90
20524;DHT22;10420;48.542;12.270;2022-12-07T16:24:35;2.60;99.90
20524;DHT22;10420;48.542;12.270;2022-12-07T16:29:36;2.50;99.90
20524;DHT22;10420;48.542;12.270;2022-12-07T16:34:36;2.50;99.90
20524;DHT22;10420;48.542;12.270;2022-12-07T16:39:37;2.50;99.90
20524;DHT22;10420;48.542;12.270;2022-12-07T16:44:37;2.50;99.90
20524;DHT22;10420;48.542;12.270;2022-12-07T16:49:39;2.50;99.90
20524;DHT22;10420;48.542;12.270;2022-12-07T16:54:40;2.50;99.90
20524;DHT22;10420;48.542;12.270;2022-12-07T16:59:40;2.40;99.90
20524;DHT22;10420;48.542;12.270;2022-12-07T17:04:41;2.40;99.90
20524;DHT22;10420;48.542;12.270;2022-12-07T17:09:42;2.50;99.90
20524;DHT22;10420;48.542;12.270;2022-12-07T17:14:43;2.50;99.90
20524;DHT22;10420;48.542;12.270;2022-12-07T17:20:02;2.40;99.90
20524;DHT22;10420;48.542;12.270;2022-12-07T17:25:04;2.50;99.90
20524;DHT22;10420;48.542;12.270;2022-12-07T17:30:08;2.40;99.90
20524;DHT22;10420;48.542;12.270;2022-12-07T17:35:09;2.40;99.90
20524;DHT22;10420;48.542;12.270;2022-12-07T17:40:10;2.40;99.90
20524;DHT22;10420;48.542;12.270;2022-12-07T17:45:11;2.30;99.90
20524;DHT22;10420;48.542;12.270;2022-12-07T17:50:12;2.40;99.90
20524;DHT22;10420;48.542;12.270;2022-12-07T17:55:12;2.30;99.90
20524;DHT22;10420;48.542;12.270;2022-12-07T18:00:14;2.30;99.90
20524;DHT22;10420;48.542;12.270;2022-12-07T18:05:14;2.40;99.90
20524;DHT22;10420;48.542;12.270;2022-12-07T18:10:15;2.40;99.90
20524;DHT22;10420;48.542;12.270;2022-12-07T18:15:16;2.40;99.90
20524;DHT22;10420;48.542;12.270;2022-12-07T18:20:17;2.40;99.90
20524;DHT22;10420;48.542;12.270;2022-12-07T18:25:17;2.50;99.90
20524;DHT22;10420;48.542;12.270;2022-12-07T18:30:18;2.50;99.90
20524;DHT22;10420;48.542;12.270;2022-12-07T18:35:19;2.50;99.90
20524;DHT22;10420;48.542;12.270;2022-12-07T18:40:20;2.50;99.90
20524;DHT22;10420;48.542;12.270;2022-12-07T18:45:21;2.50;99.90
20524;DHT22;10420;48.542;12.270;2022-12-07T18:50:21;2.50;99.90
20524;DHT22;10420;48.542;12.270;2022-12-07T18:55:22;2.50;99.90
20524;DHT22;10420;48.542;12.270;2022-12-07T19:00:24;2.40;99.90
20524;DHT22;10420;48.542;12.270;2022-12-07T19:05:25;2.40;99.90
20524;DHT22;10420;48.542;12.270;2022-12-07T19:10:26;2.40;99.90
20524;DHT22;10420;48.542;12.270;2022-12-07T19:15:27;2.40;99.90
20524;DHT22;10420;48.542;12.270;2022-12-07T19:20:27;2.30;99.90
20524;DHT22;10420;48.542;12.270;2022-12-07T19:25:28;2.40;99.90
20524;DHT22;10420;48.542;12.270;2022-12-07T19:30:28;2.40;99.90
20524;DHT22;10420;48.542;12.270;2022-12-07T19:35:29;2.40;99.90
20524;DHT22;10420;48.542;12.270;2022-12-07T19:40:30;2.30;99.90
20524;DHT22;10420;48.542;12.270;2022-12-07T19:45:31;2.30;99.90
20524;DHT22;10420;48.542;12.270;2022-12-07T19:50:34;2.30;99.90
20524;DHT22;10420;48.542;12.270;2022-12-07T19:55:38;2.20;99.90
20524;DHT22;10420;48.542;12.270;2022-12-07T20:00:39;2.30;99.90
20524;DHT22;10420;48.542;12.270;2022-12-07T20:05:40;2.30;99.90
20524;DHT22;10420;48.542;12.270;2022-12-07T20:10:41;2.30;99.90
20524;DHT22;10420;48.542;12.270;2022-12-07T20:15:41;2.20;99.90
20524;DHT22;10420;48.542;12.270;2022-12-07T20:20:54;2.30;99.90
20524;DHT22;10420;48.542;12.270;2022-12-07T20:26:01;2.20;99.90
20524;DHT22;10420;48.542;12.270;2022-12-07T20:31:03;2.20;99.90
20524;DHT22;10420;48.542;12.270;2022-12-07T20:36:04;2.20;99.90
20524;DHT22;10420;48.542;12.270;2022-12-07T20:41:07;2.20;99.90
20524;DHT22;10420;48.542;12.270;2022-12-07T20:46:10;2.20;99.90
20524;DHT22;10420;48.542;12.270;2022-12-07T20:51:11;2.20;99.90
20524;DHT22;10420;48.542;12.270;2022-12-07T20:56:20;2.20;99.90
20524;DHT22;10420;48.542;12.270;2022-12-07T21:01:21;2.10;99.90
20524;DHT22;10420;48.542;12.270;2022-12-07T21:06:21;2.20;99.90
20524;DHT22;10420;48.542;12.270;2022-12-07T21:11:23;2.10;99.90
20524;DHT22;10420;48.542;12.270;2022-12-07T21:16:28;2.10;99.90
20524;DHT22;10420;48.542;12.270;2022-12-07T21:21:30;2.10;99.90
20524;DHT22;10420;48.542;12.270;2022-12-07T21:26:33;2.10;99.90
20524;DHT22;10420;48.542;12.270;2022-12-07T21:31:34;2.10;99.90
20524;DHT22;10420;48.542;12.270;2022-12-07T21:36:35;2.10;99.90
20524;DHT22;10420;48.542;12.270;2022-12-07T21:41:36;2.10;99.90
20524;DHT22;10420;48.542;12.270;2022-12-07T21:46:38;2.10;99.90
20524;DHT22;10420;48.542;12.270;2022-12-07T21:51:40;2.10;99.90
20524;DHT22;10420;48.542;12.270;2022-12-07T21:56:41;2.20;99.90
20524;DHT22;10420;48.542;12.270;2022-12-07T22:01:43;2.10;99.90
20524;DHT22;10420;48.542;12.270;2022-12-07T22:06:47;2.10;99.90
20524;DHT22;10420;48.542;12.270;2022-12-07T22:11:48;1.90;99.90
20524;DHT22;10420;48.542;12.270;2022-12-07T22:16:50;1.90;99.90
20524;DHT22;10420;48.542;12.270;2022-12-07T22:21:51;1.90;99.90
20524;DHT22;10420;48.542;12.270;2022-12-07T22:26:52;1.90;99.90
20524;DHT22;10420;48.542;12.270;2022-12-07T22:31:52;1.90;99.90
20524;DHT22;10420;48.542;12.270;2022-12-07T22:36:53;2.00;99.90
20524;DHT22;10420;48.542;12.270;2022-12-07T22:41:54;1.90;99.90
20524;DHT22;10420;48.542;12.270;2022-12-07T22:46:54;1.90;99.90
20524;DHT22;10420;48.542;12.270;2022-12-07T22:51:55;1.80;99.90
20524;DHT22;10420;48.542;12.270;2022-12-07T22:56:56;1.80;99.90
20524;DHT22;10420;48.542;12.270;2022-12-07T23:01:56;1.80;99.90
20524;DHT22;10420;48.542;12.270;2022-12-07T23:06:57;2.00;99.90
20524;DHT22;10420;48.542;12.270;2022-12-07T23:11:58;2.00;99.90
20524;DHT22;10420;48.542;12.270;2022-12-07T23:17:17;1.90;99.90
20524;DHT22;10420;48.542;12.270;2022-12-07T23:22:20;1.90;99.90
20524;DHT22;10420;48.542;12.270;2022-12-07T23:27:21;1.80;99.90
20524;DHT22;10420;48.542;12.270;2022-12-07T23:32:22;1.90;99.90
20524;DHT22;10420;48.542;12.270;2022-12-07T23:37:23;1.90;99.90
20524;DHT22;10420;48.542;12.270;2022-12-07T23:42:23;1.80;99.90
20524;DHT22;10420;48.542;12.270;2022-12-07T23:47:24;1.80;99.90
20524;DHT22;10420;48.542;12.270;2022-12-07T23:52:24;1.80;99.90
20524;DHT22;10420;48.542;12.270;2022-12-07T23:57:25;1.70;99.90
